sensor_id;sensor_type;location;lat;lon;timestamp;P1;durP1;ratioP1;P2;durP2;ratioP2
51838;SDS011;37886;53.174;6.368;2023-04-04T00:00:10;9.18;;;8.32;;
51838;SDS011;37886;53.174;6.368;2023-04-04T00:02:37;11.07;;;8.63;;
51838;SDS011;37886;53.174;6.368;2023-04-04T00:05:03;10.73;;;9.63;;
51838;SDS011;37886;53.174;6.368;2023-04-04T00:07:29;12.43;;;9.02;;
51838;SDS011;37886;53.174;6.368;2023-04-04T00:09:56;11.27;;;9.32;;
51838;SDS011;37886;53.174;6.368;2023-04-04T00:12:21;13.13;;;10.65;;
51838;SDS011;37886;53.174;6.368;2023-04-04T00:14:48;11.45;;;9.52;;
51838;SDS011;37886;53.174;6.368;2023-04-04T00:17:14;10.10;;;9.10;;
51838;SDS011;37886;53.174;6.368;2023-04-04T00:19:40;10.25;;;9.20;;
51838;SDS011;37886;53.174;6.368;2023-04-04T00:22:06;10.23;;;9.13;;
51838;SDS011;37886;53.174;6.368;2023-04-04T00:24:32;8.95;;;8.25;;
51838;SDS011;37886;53.174;6.368;2023-04-04T00:26:58;12.00;;;9.88;;
51838;SDS011;37886;53.174;6.368;2023-04-04T00:29:24;9.63;;;8.27;;
51838;SDS011;37886;53.174;6.368;2023-04-04T00:31:50;11.13;;;9.85;;
51838;SDS011;37886;53.174;6.368;2023-04-04T00:34:15;10.30;;;9.20;;
51838;SDS011;37886;53.174;6.368;2023-04-04T00:36:41;12.20;;;9.60;;
51838;SDS011;37886;53.174;6.368;2023-04-04T00:39:07;9.82;;;8.88;;
51838;SDS011;37886;53.174;6.368;2023-04-04T00:41:33;10.18;;;9.27;;
51838;SDS011;37886;53.174;6.368;2023-04-04T00:43:59;12.30;;;9.23;;
51838;SDS011;37886;53.174;6.368;2023-04-04T00:46:25;13.32;;;10.35;;
51838;SDS011;37886;53.174;6.368;2023-04-04T00:48:53;9.85;;;8.85;;
51838;SDS011;37886;53.174;6.368;2023-04-04T00:51:19;13.98;;;9.45;;
51838;SDS011;37886;53.174;6.368;2023-04-04T00:53:45;10.20;;;8.85;;
51838;SDS011;37886;53.174;6.368;2023-04-04T00:56:12;12.02;;;10.10;;
51838;SDS011;37886;53.174;6.368;2023-04-04T00:58:39;13.10;;;9.15;;
51838;SDS011;37886;53.174;6.368;2023-04-04T01:01:06;11.32;;;10.15;;
51838;SDS011;37886;53.174;6.368;2023-04-04T01:03:32;11.00;;;9.90;;
51838;SDS011;37886;53.174;6.368;2023-04-04T01:05:59;14.13;;;9.57;;
51838;SDS011;37886;53.174;6.368;2023-04-04T01:08:26;11.52;;;10.23;;
51838;SDS011;37886;53.174;6.368;2023-04-04T01:10:53;10.98;;;9.98;;
51838;SDS011;37886;53.174;6.368;2023-04-04T01:13:19;11.35;;;10.02;;
51838;SDS011;37886;53.174;6.368;2023-04-04T01:15:45;13.88;;;10.00;;
51838;SDS011;37886;53.174;6.368;2023-04-04T01:18:12;13.57;;;11.73;;
51838;SDS011;37886;53.174;6.368;2023-04-04T01:20:43;12.88;;;11.57;;
51838;SDS011;37886;53.174;6.368;2023-04-04T01:26:15;11.85;;;10.68;;
51838;SDS011;37886;53.174;6.368;2023-04-04T01:28:41;12.90;;;11.63;;
51838;SDS011;37886;53.174;6.368;2023-04-04T01:31:07;15.52;;;10.77;;
51838;SDS011;37886;53.174;6.368;2023-04-04T01:33:39;11.90;;;10.67;;
51838;SDS011;37886;53.174;6.368;2023-04-04T01:36:33;12.63;;;10.75;;
51838;SDS011;37886;53.174;6.368;2023-04-04T01:41:49;11.88;;;10.75;;
51838;SDS011;37886;53.174;6.368;2023-04-04T01:44:16;11.65;;;10.50;;
51838;SDS011;37886;53.174;6.368;2023-04-04T01:46:43;14.07;;;11.32;;
51838;SDS011;37886;53.174;6.368;2023-04-04T01:49:08;17.98;;;11.25;;
51838;SDS011;37886;53.174;6.368;2023-04-04T01:51:34;14.90;;;12.27;;
51838;SDS011;37886;53.174;6.368;2023-04-04T01:54:00;16.65;;;12.35;;
51838;SDS011;37886;53.174;6.368;2023-04-04T01:56:26;17.70;;;12.98;;
51838;SDS011;37886;53.174;6.368;2023-04-04T01:58:52;18.25;;;14.18;;
51838;SDS011;37886;53.174;6.368;2023-04-04T02:01:17;21.38;;;14.30;;
51838;SDS011;37886;53.174;6.368;2023-04-04T02:03:43;23.08;;;14.20;;
51838;SDS011;37886;53.174;6.368;2023-04-04T02:06:09;15.95;;;14.07;;
51838;SDS011;37886;53.174;6.368;2023-04-04T02:08:35;25.73;;;14.13;;
51838;SDS011;37886;53.174;6.368;2023-04-04T02:11:02;19.95;;;14.75;;
51838;SDS011;37886;53.174;6.368;2023-04-04T02:13:28;23.85;;;15.90;;
51838;SDS011;37886;53.174;6.368;2023-04-04T02:15:53;19.35;;;14.85;;
51838;SDS011;37886;53.174;6.368;2023-04-04T02:18:19;16.58;;;13.75;;
51838;SDS011;37886;53.174;6.368;2023-04-04T02:20:45;24.20;;;15.57;;
51838;SDS011;37886;53.174;6.368;2023-04-04T02:23:11;22.67;;;15.32;;
51838;SDS011;37886;53.174;6.368;2023-04-04T02:25:36;23.02;;;14.23;;
51838;SDS011;37886;53.174;6.368;2023-04-04T02:28:02;21.58;;;15.65;;
51838;SDS011;37886;53.174;6.368;2023-04-04T02:30:28;20.40;;;13.93;;
51838;SDS011;37886;53.174;6.368;2023-04-04T02:32:56;16.65;;;13.85;;
51838;SDS011;37886;53.174;6.368;2023-04-04T02:35:23;17.77;;;13.98;;
51838;SDS011;37886;53.174;6.368;2023-04-04T02:37:49;18.33;;;14.50;;
51838;SDS011;37886;53.174;6.368;2023-04-04T02:40:14;17.08;;;13.80;;
51838;SDS011;37886;53.174;6.368;2023-04-04T02:42:43;15.90;;;13.52;;
51838;SDS011;37886;53.174;6.368;2023-04-04T02:45:09;19.63;;;13.75;;
51838;SDS011;37886;53.174;6.368;2023-04-04T02:47:36;18.67;;;11.88;;
51838;SDS011;37886;53.174;6.368;2023-04-04T02:50:02;16.90;;;15.05;;
51838;SDS011;37886;53.174;6.368;2023-04-04T02:52:28;13.50;;;12.20;;
51838;SDS011;37886;53.174;6.368;2023-04-04T02:54:53;16.63;;;13.82;;
51838;SDS011;37886;53.174;6.368;2023-04-04T02:57:19;18.08;;;13.45;;
51838;SDS011;37886;53.174;6.368;2023-04-04T02:59:45;18.92;;;12.02;;
51838;SDS011;37886;53.174;6.368;2023-04-04T03:02:11;13.00;;;11.68;;
51838;SDS011;37886;53.174;6.368;2023-04-04T03:04:37;16.25;;;12.98;;
51838;SDS011;37886;53.174;6.368;2023-04-04T03:07:02;17.10;;;12.38;;
51838;SDS011;37886;53.174;6.368;2023-04-04T03:09:29;15.75;;;11.82;;
51838;SDS011;37886;53.174;6.368;2023-04-04T03:11:54;14.00;;;11.90;;
51838;SDS011;37886;53.174;6.368;2023-04-04T03:14:21;13.20;;;11.20;;
51838;SDS011;37886;53.174;6.368;2023-04-04T03:16:46;15.55;;;12.25;;
51838;SDS011;37886;53.174;6.368;2023-04-04T03:19:16;15.40;;;12.18;;
51838;SDS011;37886;53.174;6.368;2023-04-04T03:21:41;17.38;;;12.18;;
51838;SDS011;37886;53.174;6.368;2023-04-04T03:24:07;14.38;;;13.05;;
51838;SDS011;37886;53.174;6.368;2023-04-04T03:26:33;13.90;;;11.82;;
51838;SDS011;37886;53.174;6.368;2023-04-04T03:28:58;13.90;;;11.80;;
51838;SDS011;37886;53.174;6.368;2023-04-04T03:31:24;14.90;;;13.40;;
51838;SDS011;37886;53.174;6.368;2023-04-04T03:33:50;18.25;;;12.85;;
51838;SDS011;37886;53.174;6.368;2023-04-04T03:36:15;12.98;;;11.68;;
51838;SDS011;37886;53.174;6.368;2023-04-04T03:38:41;17.25;;;12.10;;
51838;SDS011;37886;53.174;6.368;2023-04-04T03:41:07;18.27;;;12.30;;
51838;SDS011;37886;53.174;6.368;2023-04-04T03:43:33;15.32;;;12.35;;
51838;SDS011;37886;53.174;6.368;2023-04-04T03:45:59;14.82;;;11.48;;
51838;SDS011;37886;53.174;6.368;2023-04-04T03:48:26;15.77;;;13.18;;
51838;SDS011;37886;53.174;6.368;2023-04-04T03:50:51;21.77;;;12.68;;
51838;SDS011;37886;53.174;6.368;2023-04-04T03:53:17;19.10;;;13.43;;
51838;SDS011;37886;53.174;6.368;2023-04-04T03:55:42;15.18;;;12.68;;
51838;SDS011;37886;53.174;6.368;2023-04-04T03:58:08;17.67;;;12.27;;
51838;SDS011;37886;53.174;6.368;2023-04-04T04:00:34;17.70;;;12.40;;
51838;SDS011;37886;53.174;6.368;2023-04-04T04:03:00;18.08;;;12.35;;
51838;SDS011;37886;53.174;6.368;2023-04-04T04:05:25;18.98;;;12.65;;
51838;SDS011;37886;53.174;6.368;2023-04-04T04:07:51;14.10;;;11.70;;
51838;SDS011;37886;53.174;6.368;2023-04-04T04:10:17;15.00;;;12.38;;
51838;SDS011;37886;53.174;6.368;2023-04-04T04:12:43;15.40;;;13.90;;
51838;SDS011;37886;53.174;6.368;2023-04-04T04:15:09;14.90;;;13.25;;
51838;SDS011;37886;53.174;6.368;2023-04-04T04:17:38;23.10;;;14.70;;
51838;SDS011;37886;53.174;6.368;2023-04-04T04:20:05;12.25;;;11.13;;
51838;SDS011;37886;53.174;6.368;2023-04-04T04:22:32;17.83;;;13.75;;
51838;SDS011;37886;53.174;6.368;2023-04-04T04:24:58;14.68;;;12.77;;
51838;SDS011;37886;53.174;6.368;2023-04-04T04:27:24;17.80;;;12.90;;
51838;SDS011;37886;53.174;6.368;2023-04-04T04:29:50;15.65;;;11.98;;
51838;SDS011;37886;53.174;6.368;2023-04-04T04:32:16;15.70;;;13.13;;
51838;SDS011;37886;53.174;6.368;2023-04-04T04:34:42;16.30;;;14.20;;
51838;SDS011;37886;53.174;6.368;2023-04-04T04:37:10;17.50;;;12.70;;
51838;SDS011;37886;53.174;6.368;2023-04-04T04:39:36;19.67;;;13.65;;
51838;SDS011;37886;53.174;6.368;2023-04-04T04:42:02;13.80;;;12.40;;
51838;SDS011;37886;53.174;6.368;2023-04-04T04:44:28;13.75;;;12.35;;
51838;SDS011;37886;53.174;6.368;2023-04-04T04:46:53;15.27;;;13.15;;
51838;SDS011;37886;53.174;6.368;2023-04-04T04:49:19;14.63;;;12.30;;
51838;SDS011;37886;53.174;6.368;2023-04-04T04:51:45;14.25;;;12.88;;
51838;SDS011;37886;53.174;6.368;2023-04-04T04:54:11;16.00;;;12.60;;
51838;SDS011;37886;53.174;6.368;2023-04-04T04:56:36;14.68;;;13.07;;
51838;SDS011;37886;53.174;6.368;2023-04-04T04:59:02;15.48;;;13.63;;
51838;SDS011;37886;53.174;6.368;2023-04-04T05:01:28;15.57;;;13.10;;
51838;SDS011;37886;53.174;6.368;2023-04-04T05:03:54;17.05;;;14.00;;
51838;SDS011;37886;53.174;6.368;2023-04-04T05:06:19;17.27;;;13.90;;
51838;SDS011;37886;53.174;6.368;2023-04-04T05:08:45;18.20;;;14.07;;
51838;SDS011;37886;53.174;6.368;2023-04-04T05:11:11;17.83;;;14.02;;
51838;SDS011;37886;53.174;6.368;2023-04-04T05:13:37;17.05;;;12.68;;
51838;SDS011;37886;53.174;6.368;2023-04-04T05:16:02;20.20;;;14.55;;
51838;SDS011;37886;53.174;6.368;2023-04-04T05:18:29;15.18;;;13.00;;
51838;SDS011;37886;53.174;6.368;2023-04-04T05:20:54;16.80;;;15.10;;
51838;SDS011;37886;53.174;6.368;2023-04-04T05:23:21;18.85;;;14.55;;
51838;SDS011;37886;53.174;6.368;2023-04-04T05:25:48;18.33;;;13.85;;
51838;SDS011;37886;53.174;6.368;2023-04-04T05:28:15;17.25;;;13.82;;
51838;SDS011;37886;53.174;6.368;2023-04-04T05:30:41;23.70;;;13.93;;
51838;SDS011;37886;53.174;6.368;2023-04-04T05:33:07;17.23;;;14.25;;
51838;SDS011;37886;53.174;6.368;2023-04-04T05:35:32;16.73;;;13.75;;
51838;SDS011;37886;53.174;6.368;2023-04-04T05:37:58;18.30;;;14.30;;
51838;SDS011;37886;53.174;6.368;2023-04-04T05:40:24;14.90;;;13.43;;
51838;SDS011;37886;53.174;6.368;2023-04-04T05:42:56;17.13;;;12.77;;
51838;SDS011;37886;53.174;6.368;2023-04-04T05:45:23;15.77;;;13.68;;
51838;SDS011;37886;53.174;6.368;2023-04-04T05:47:49;17.95;;;13.32;;
51838;SDS011;37886;53.174;6.368;2023-04-04T05:50:15;15.38;;;12.82;;
51838;SDS011;37886;53.174;6.368;2023-04-04T05:52:41;17.48;;;13.85;;
51838;SDS011;37886;53.174;6.368;2023-04-04T05:55:07;15.65;;;12.93;;
51838;SDS011;37886;53.174;6.368;2023-04-04T05:57:33;15.65;;;12.98;;
51838;SDS011;37886;53.174;6.368;2023-04-04T05:59:59;19.92;;;13.35;;
51838;SDS011;37886;53.174;6.368;2023-04-04T06:02:24;20.23;;;13.43;;
51838;SDS011;37886;53.174;6.368;2023-04-04T06:04:50;15.70;;;13.15;;
51838;SDS011;37886;53.174;6.368;2023-04-04T06:07:19;18.92;;;12.63;;
51838;SDS011;37886;53.174;6.368;2023-04-04T06:09:45;14.20;;;12.20;;
51838;SDS011;37886;53.174;6.368;2023-04-04T06:12:10;13.32;;;11.40;;
51838;SDS011;37886;53.174;6.368;2023-04-04T06:14:36;14.00;;;12.30;;
51838;SDS011;37886;53.174;6.368;2023-04-04T06:17:02;17.05;;;12.35;;
51838;SDS011;37886;53.174;6.368;2023-04-04T06:19:29;16.27;;;13.27;;
51838;SDS011;37886;53.174;6.368;2023-04-04T06:21:55;16.10;;;12.57;;
51838;SDS011;37886;53.174;6.368;2023-04-04T06:24:20;16.63;;;13.55;;
51838;SDS011;37886;53.174;6.368;2023-04-04T06:26:46;18.70;;;13.40;;
51838;SDS011;37886;53.174;6.368;2023-04-04T06:29:15;20.15;;;13.38;;
51838;SDS011;37886;53.174;6.368;2023-04-04T06:31:42;16.88;;;13.07;;
51838;SDS011;37886;53.174;6.368;2023-04-04T06:34:08;17.17;;;12.25;;
51838;SDS011;37886;53.174;6.368;2023-04-04T06:36:34;13.75;;;11.07;;
51838;SDS011;37886;53.174;6.368;2023-04-04T06:39:00;14.77;;;11.27;;
51838;SDS011;37886;53.174;6.368;2023-04-04T06:41:25;14.32;;;11.52;;
51838;SDS011;37886;53.174;6.368;2023-04-04T06:43:51;15.38;;;10.80;;
51838;SDS011;37886;53.174;6.368;2023-04-04T06:46:17;14.10;;;10.68;;
51838;SDS011;37886;53.174;6.368;2023-04-04T06:48:43;14.77;;;10.55;;
51838;SDS011;37886;53.174;6.368;2023-04-04T06:51:09;14.90;;;11.13;;
51838;SDS011;37886;53.174;6.368;2023-04-04T06:53:35;13.20;;;11.88;;
51838;SDS011;37886;53.174;6.368;2023-04-04T06:56:02;13.20;;;10.90;;
51838;SDS011;37886;53.174;6.368;2023-04-04T06:58:28;18.02;;;10.80;;
51838;SDS011;37886;53.174;6.368;2023-04-04T07:00:54;14.77;;;10.95;;
51838;SDS011;37886;53.174;6.368;2023-04-04T07:03:23;11.77;;;9.18;;
51838;SDS011;37886;53.174;6.368;2023-04-04T07:05:49;14.30;;;9.55;;
51838;SDS011;37886;53.174;6.368;2023-04-04T07:08:15;12.95;;;10.23;;
51838;SDS011;37886;53.174;6.368;2023-04-04T07:10:41;11.00;;;9.88;;
51838;SDS011;37886;53.174;6.368;2023-04-04T07:13:06;10.30;;;8.57;;
51838;SDS011;37886;53.174;6.368;2023-04-04T07:15:32;10.60;;;9.55;;
51838;SDS011;37886;53.174;6.368;2023-04-04T07:17:58;14.27;;;9.10;;
51838;SDS011;37886;53.174;6.368;2023-04-04T07:20:23;12.13;;;9.70;;
51838;SDS011;37886;53.174;6.368;2023-04-04T07:22:51;10.50;;;9.43;;
51838;SDS011;37886;53.174;6.368;2023-04-04T07:25:16;12.80;;;9.82;;
51838;SDS011;37886;53.174;6.368;2023-04-04T07:27:42;14.15;;;9.55;;
51838;SDS011;37886;53.174;6.368;2023-04-04T07:30:08;10.00;;;8.65;;
51838;SDS011;37886;53.174;6.368;2023-04-04T07:32:34;11.65;;;8.65;;
51838;SDS011;37886;53.174;6.368;2023-04-04T07:35:02;12.48;;;8.85;;
51838;SDS011;37886;53.174;6.368;2023-04-04T07:37:29;9.52;;;8.52;;
51838;SDS011;37886;53.174;6.368;2023-04-04T07:39:55;11.15;;;8.48;;
51838;SDS011;37886;53.174;6.368;2023-04-04T07:42:20;10.07;;;9.13;;
51838;SDS011;37886;53.174;6.368;2023-04-04T07:44:49;10.73;;;8.48;;
51838;SDS011;37886;53.174;6.368;2023-04-04T07:47:18;10.32;;;9.30;;
51838;SDS011;37886;53.174;6.368;2023-04-04T07:49:44;10.85;;;8.32;;
51838;SDS011;37886;53.174;6.368;2023-04-04T07:52:10;10.90;;;9.05;;
51838;SDS011;37886;53.174;6.368;2023-04-04T07:54:36;11.02;;;9.85;;
51838;SDS011;37886;53.174;6.368;2023-04-04T07:57:04;8.98;;;8.07;;
51838;SDS011;37886;53.174;6.368;2023-04-04T07:59:33;15.45;;;9.18;;
51838;SDS011;37886;53.174;6.368;2023-04-04T08:02:00;9.25;;;8.43;;
51838;SDS011;37886;53.174;6.368;2023-04-04T08:04:25;9.68;;;8.52;;
51838;SDS011;37886;53.174;6.368;2023-04-04T08:06:51;13.02;;;9.52;;
51838;SDS011;37886;53.174;6.368;2023-04-04T08:09:17;10.52;;;8.57;;
51838;SDS011;37886;53.174;6.368;2023-04-04T08:11:42;15.70;;;9.60;;
51838;SDS011;37886;53.174;6.368;2023-04-04T08:14:09;11.52;;;9.27;;
51838;SDS011;37886;53.174;6.368;2023-04-04T08:16:37;9.07;;;8.07;;
51838;SDS011;37886;53.174;6.368;2023-04-04T08:19:03;10.00;;;8.55;;
51838;SDS011;37886;53.174;6.368;2023-04-04T08:21:29;10.10;;;9.10;;
51838;SDS011;37886;53.174;6.368;2023-04-04T08:23:55;11.43;;;9.20;;
51838;SDS011;37886;53.174;6.368;2023-04-04T08:26:20;9.98;;;9.13;;
51838;SDS011;37886;53.174;6.368;2023-04-04T08:28:46;11.70;;;9.68;;
51838;SDS011;37886;53.174;6.368;2023-04-04T08:31:13;11.30;;;10.13;;
51838;SDS011;37886;53.174;6.368;2023-04-04T08:33:38;10.57;;;9.65;;
51838;SDS011;37886;53.174;6.368;2023-04-04T08:36:04;10.77;;;9.75;;
51838;SDS011;37886;53.174;6.368;2023-04-04T08:38:30;10.55;;;9.65;;
51838;SDS011;37886;53.174;6.368;2023-04-04T08:40:55;9.93;;;9.02;;
51838;SDS011;37886;53.174;6.368;2023-04-04T08:43:22;10.43;;;9.43;;
51838;SDS011;37886;53.174;6.368;2023-04-04T08:45:49;10.45;;;9.43;;
51838;SDS011;37886;53.174;6.368;2023-04-04T08:48:18;11.88;;;9.70;;
51838;SDS011;37886;53.174;6.368;2023-04-04T08:50:45;12.20;;;9.02;;
51838;SDS011;37886;53.174;6.368;2023-04-04T08:53:11;11.27;;;10.23;;
51838;SDS011;37886;53.174;6.368;2023-04-04T08:55:38;10.73;;;9.70;;
51838;SDS011;37886;53.174;6.368;2023-04-04T08:58:04;10.43;;;9.38;;
51838;SDS011;37886;53.174;6.368;2023-04-04T09:00:30;10.73;;;9.23;;
51838;SDS011;37886;53.174;6.368;2023-04-04T09:05:29;12.55;;;8.80;;
51838;SDS011;37886;53.174;6.368;2023-04-04T09:07:55;9.65;;;8.95;;
51838;SDS011;37886;53.174;6.368;2023-04-04T09:10:21;11.07;;;10.07;;
51838;SDS011;37886;53.174;6.368;2023-04-04T09:12:47;13.85;;;8.80;;
51838;SDS011;37886;53.174;6.368;2023-04-04T09:15:15;15.40;;;9.10;;
51838;SDS011;37886;53.174;6.368;2023-04-04T09:17:41;12.85;;;9.65;;
51838;SDS011;37886;53.174;6.368;2023-04-04T09:23:09;11.90;;;10.23;;
51838;SDS011;37886;53.174;6.368;2023-04-04T09:25:49;9.65;;;8.73;;
51838;SDS011;37886;53.174;6.368;2023-04-04T09:28:16;10.32;;;9.38;;
51838;SDS011;37886;53.174;6.368;2023-04-04T09:30:42;9.48;;;8.68;;
51838;SDS011;37886;53.174;6.368;2023-04-04T09:33:11;10.27;;;9.27;;
51838;SDS011;37886;53.174;6.368;2023-04-04T09:35:38;10.68;;;9.68;;
51838;SDS011;37886;53.174;6.368;2023-04-04T09:38:07;12.90;;;9.57;;
51838;SDS011;37886;53.174;6.368;2023-04-04T09:40:34;11.35;;;10.35;;
51838;SDS011;37886;53.174;6.368;2023-04-04T09:43:00;11.70;;;9.50;;
51838;SDS011;37886;53.174;6.368;2023-04-04T09:45:30;11.77;;;10.43;;
51838;SDS011;37886;53.174;6.368;2023-04-04T09:47:58;10.23;;;9.32;;
51838;SDS011;37886;53.174;6.368;2023-04-04T09:50:25;12.35;;;9.77;;
51838;SDS011;37886;53.174;6.368;2023-04-04T09:52:55;13.55;;;9.38;;
51838;SDS011;37886;53.174;6.368;2023-04-04T09:55:30;11.48;;;9.75;;
51838;SDS011;37886;53.174;6.368;2023-04-04T09:58:16;13.57;;;9.35;;
51838;SDS011;37886;53.174;6.368;2023-04-04T10:00:46;14.00;;;10.38;;
51838;SDS011;37886;53.174;6.368;2023-04-04T10:03:13;11.43;;;9.40;;
51838;SDS011;37886;53.174;6.368;2023-04-04T10:05:40;14.57;;;9.63;;
51838;SDS011;37886;53.174;6.368;2023-04-04T10:08:20;11.00;;;9.35;;
51838;SDS011;37886;53.174;6.368;2023-04-04T10:10:50;11.13;;;10.02;;
51838;SDS011;37886;53.174;6.368;2023-04-04T10:13:23;10.52;;;9.60;;
51838;SDS011;37886;53.174;6.368;2023-04-04T10:15:59;10.27;;;9.43;;
51838;SDS011;37886;53.174;6.368;2023-04-04T10:18:33;16.92;;;11.02;;
51838;SDS011;37886;53.174;6.368;2023-04-04T10:21:00;10.57;;;9.57;;
51838;SDS011;37886;53.174;6.368;2023-04-04T10:23:30;11.50;;;10.48;;
51838;SDS011;37886;53.174;6.368;2023-04-04T10:25:58;13.27;;;9.80;;
51838;SDS011;37886;53.174;6.368;2023-04-04T10:28:24;11.32;;;9.70;;
51838;SDS011;37886;53.174;6.368;2023-04-04T10:30:53;13.23;;;9.45;;
51838;SDS011;37886;53.174;6.368;2023-04-04T10:33:39;10.55;;;9.65;;
51838;SDS011;37886;53.174;6.368;2023-04-04T10:36:26;12.27;;;9.75;;
51838;SDS011;37886;53.174;6.368;2023-04-04T10:39:07;14.32;;;10.75;;
51838;SDS011;37886;53.174;6.368;2023-04-04T10:41:38;10.75;;;9.75;;
51838;SDS011;37886;53.174;6.368;2023-04-04T10:44:09;11.43;;;10.32;;
51838;SDS011;37886;53.174;6.368;2023-04-04T10:46:42;14.48;;;9.57;;
51838;SDS011;37886;53.174;6.368;2023-04-04T10:49:13;12.15;;;10.95;;
51838;SDS011;37886;53.174;6.368;2023-04-04T10:51:40;11.57;;;10.50;;
51838;SDS011;37886;53.174;6.368;2023-04-04T10:54:06;10.60;;;9.50;;
51838;SDS011;37886;53.174;6.368;2023-04-04T10:56:33;10.52;;;9.55;;
51838;SDS011;37886;53.174;6.368;2023-04-04T10:59:18;10.85;;;9.85;;
51838;SDS011;37886;53.174;6.368;2023-04-04T11:04:37;11.02;;;9.95;;
51838;SDS011;37886;53.174;6.368;2023-04-04T11:07:12;14.45;;;9.70;;
51838;SDS011;37886;53.174;6.368;2023-04-04T11:12:13;11.23;;;10.13;;
51838;SDS011;37886;53.174;6.368;2023-04-04T11:14:55;13.75;;;11.38;;
51838;SDS011;37886;53.174;6.368;2023-04-04T11:20:14;12.15;;;10.90;;
51838;SDS011;37886;53.174;6.368;2023-04-04T11:22:41;11.45;;;10.25;;
51838;SDS011;37886;53.174;6.368;2023-04-04T11:27:54;15.05;;;11.13;;
51838;SDS011;37886;53.174;6.368;2023-04-04T11:30:22;11.82;;;10.73;;
51838;SDS011;37886;53.174;6.368;2023-04-04T11:32:55;14.73;;;12.38;;
51838;SDS011;37886;53.174;6.368;2023-04-04T11:35:23;12.00;;;10.80;;
51838;SDS011;37886;53.174;6.368;2023-04-04T11:40:15;12.95;;;11.50;;
51838;SDS011;37886;53.174;6.368;2023-04-04T11:42:41;12.63;;;11.40;;
51838;SDS011;37886;53.174;6.368;2023-04-04T11:45:07;12.40;;;11.20;;
51838;SDS011;37886;53.174;6.368;2023-04-04T11:47:35;12.23;;;11.13;;
51838;SDS011;37886;53.174;6.368;2023-04-04T11:50:07;12.07;;;10.98;;
51838;SDS011;37886;53.174;6.368;2023-04-04T11:55:00;12.63;;;11.25;;
51838;SDS011;37886;53.174;6.368;2023-04-04T11:57:26;15.00;;;11.98;;
51838;SDS011;37886;53.174;6.368;2023-04-04T11:59:52;13.40;;;12.05;;
51838;SDS011;37886;53.174;6.368;2023-04-04T12:02:18;13.27;;;10.90;;
51838;SDS011;37886;53.174;6.368;2023-04-04T12:04:55;13.93;;;12.77;;
51838;SDS011;37886;53.174;6.368;2023-04-04T12:07:22;13.00;;;11.75;;
51838;SDS011;37886;53.174;6.368;2023-04-04T12:09:48;12.80;;;11.50;;
51838;SDS011;37886;53.174;6.368;2023-04-04T12:12:15;14.30;;;12.75;;
51838;SDS011;37886;53.174;6.368;2023-04-04T12:14:40;13.10;;;11.90;;
51838;SDS011;37886;53.174;6.368;2023-04-04T12:17:07;13.27;;;11.90;;
51838;SDS011;37886;53.174;6.368;2023-04-04T12:19:36;13.35;;;11.98;;
51838;SDS011;37886;53.174;6.368;2023-04-04T12:22:03;13.50;;;12.30;;
51838;SDS011;37886;53.174;6.368;2023-04-04T12:24:29;16.83;;;13.40;;
51838;SDS011;37886;53.174;6.368;2023-04-04T12:26:54;14.20;;;13.00;;
51838;SDS011;37886;53.174;6.368;2023-04-04T12:29:23;13.43;;;12.23;;
51838;SDS011;37886;53.174;6.368;2023-04-04T12:32:00;14.40;;;13.10;;
51838;SDS011;37886;53.174;6.368;2023-04-04T12:34:30;14.07;;;12.68;;
51838;SDS011;37886;53.174;6.368;2023-04-04T12:36:57;13.15;;;12.05;;
51838;SDS011;37886;53.174;6.368;2023-04-04T12:39:25;14.15;;;12.98;;
51838;SDS011;37886;53.174;6.368;2023-04-04T12:47:01;14.40;;;12.23;;
51838;SDS011;37886;53.174;6.368;2023-04-04T12:51:58;14.38;;;13.18;;
51838;SDS011;37886;53.174;6.368;2023-04-04T12:54:32;13.18;;;11.88;;
51838;SDS011;37886;53.174;6.368;2023-04-04T12:57:03;13.43;;;12.18;;
51838;SDS011;37886;53.174;6.368;2023-04-04T12:59:32;14.45;;;13.15;;
51838;SDS011;37886;53.174;6.368;2023-04-04T13:02:02;13.23;;;12.05;;
51838;SDS011;37886;53.174;6.368;2023-04-04T13:04:35;13.55;;;12.15;;
51838;SDS011;37886;53.174;6.368;2023-04-04T13:07:02;14.10;;;12.90;;
51838;SDS011;37886;53.174;6.368;2023-04-04T13:09:28;14.82;;;11.88;;
51838;SDS011;37886;53.174;6.368;2023-04-04T13:12:01;13.52;;;11.63;;
51838;SDS011;37886;53.174;6.368;2023-04-04T13:17:39;14.48;;;13.15;;
51838;SDS011;37886;53.174;6.368;2023-04-04T13:20:09;13.10;;;11.90;;
51838;SDS011;37886;53.174;6.368;2023-04-04T13:22:36;13.50;;;12.32;;
51838;SDS011;37886;53.174;6.368;2023-04-04T13:25:03;12.27;;;11.18;;
51838;SDS011;37886;53.174;6.368;2023-04-04T13:27:29;13.30;;;12.10;;
51838;SDS011;37886;53.174;6.368;2023-04-04T13:29:55;12.00;;;10.93;;
51838;SDS011;37886;53.174;6.368;2023-04-04T13:32:21;13.43;;;12.10;;
51838;SDS011;37886;53.174;6.368;2023-04-04T13:34:46;12.73;;;11.52;;
51838;SDS011;37886;53.174;6.368;2023-04-04T13:37:13;12.50;;;11.35;;
51838;SDS011;37886;53.174;6.368;2023-04-04T13:39:38;12.25;;;11.05;;
51838;SDS011;37886;53.174;6.368;2023-04-04T13:42:04;12.95;;;11.98;;
51838;SDS011;37886;53.174;6.368;2023-04-04T13:44:30;13.20;;;12.10;;
51838;SDS011;37886;53.174;6.368;2023-04-04T13:46:55;13.63;;;12.35;;
51838;SDS011;37886;53.174;6.368;2023-04-04T13:49:21;13.90;;;12.80;;
51838;SDS011;37886;53.174;6.368;2023-04-04T13:51:47;13.10;;;12.00;;
51838;SDS011;37886;53.174;6.368;2023-04-04T13:54:13;12.65;;;11.55;;
51838;SDS011;37886;53.174;6.368;2023-04-04T13:56:39;13.52;;;12.32;;
51838;SDS011;37886;53.174;6.368;2023-04-04T13:59:05;14.25;;;13.00;;
51838;SDS011;37886;53.174;6.368;2023-04-04T14:01:30;13.27;;;12.18;;
51838;SDS011;37886;53.174;6.368;2023-04-04T14:03:56;13.98;;;12.30;;
51838;SDS011;37886;53.174;6.368;2023-04-04T14:06:22;13.20;;;12.10;;
51838;SDS011;37886;53.174;6.368;2023-04-04T14:08:48;13.48;;;12.25;;
51838;SDS011;37886;53.174;6.368;2023-04-04T14:11:14;13.52;;;12.20;;
51838;SDS011;37886;53.174;6.368;2023-04-04T14:13:40;12.80;;;11.68;;
51838;SDS011;37886;53.174;6.368;2023-04-04T14:16:06;13.45;;;12.20;;
51838;SDS011;37886;53.174;6.368;2023-04-04T14:18:33;14.18;;;12.82;;
51838;SDS011;37886;53.174;6.368;2023-04-04T14:20:59;14.88;;;13.48;;
51838;SDS011;37886;53.174;6.368;2023-04-04T14:23:26;13.63;;;12.00;;
51838;SDS011;37886;53.174;6.368;2023-04-04T14:25:54;13.32;;;12.05;;
51838;SDS011;37886;53.174;6.368;2023-04-04T14:28:20;13.23;;;12.00;;
51838;SDS011;37886;53.174;6.368;2023-04-04T14:30:48;13.10;;;11.90;;
51838;SDS011;37886;53.174;6.368;2023-04-04T14:33:15;13.20;;;12.05;;
51838;SDS011;37886;53.174;6.368;2023-04-04T14:35:40;13.23;;;11.90;;
51838;SDS011;37886;53.174;6.368;2023-04-04T14:38:06;13.05;;;11.95;;
51838;SDS011;37886;53.174;6.368;2023-04-04T14:40:32;13.98;;;12.88;;
51838;SDS011;37886;53.174;6.368;2023-04-04T14:42:58;13.73;;;12.55;;
51838;SDS011;37886;53.174;6.368;2023-04-04T14:45:23;13.95;;;12.85;;
51838;SDS011;37886;53.174;6.368;2023-04-04T14:47:49;14.48;;;13.13;;
51838;SDS011;37886;53.174;6.368;2023-04-04T14:50:16;13.07;;;12.00;;
51838;SDS011;37886;53.174;6.368;2023-04-04T14:52:41;12.80;;;11.60;;
51838;SDS011;37886;53.174;6.368;2023-04-04T14:55:07;14.60;;;13.45;;
51838;SDS011;37886;53.174;6.368;2023-04-04T14:57:34;13.50;;;12.23;;
51838;SDS011;37886;53.174;6.368;2023-04-04T14:59:59;13.60;;;12.40;;
51838;SDS011;37886;53.174;6.368;2023-04-04T15:02:25;13.75;;;12.55;;